sensor_id;sensor_type;location;lat;lon;timestamp;P1;durP1;ratioP1;P2;durP2;ratioP2
20443;SDS011;10381;53.730;10.010;2023-12-20T00:01:39;21.27;;;10.93;;
20443;SDS011;10381;53.730;10.010;2023-12-20T00:05:39;45.40;;;11.87;;
20443;SDS011;10381;53.730;10.010;2023-12-20T00:09:41;27.55;;;9.63;;
20443;SDS011;10381;53.730;10.010;2023-12-20T00:13:41;24.00;;;8.23;;
20443;SDS011;10381;53.730;10.010;2023-12-20T00:17:41;30.13;;;7.93;;
20443;SDS011;10381;53.730;10.010;2023-12-20T00:21:41;22.53;;;8.20;;
20443;SDS011;10381;53.730;10.010;2023-12-20T00:25:42;26.67;;;7.32;;
20443;SDS011;10381;53.730;10.010;2023-12-20T00:29:42;23.25;;;7.00;;
20443;SDS011;10381;53.730;10.010;2023-12-20T00:33:47;29.55;;;6.22;;
20443;SDS011;10381;53.730;10.010;2023-12-20T00:37:48;24.20;;;6.97;;
20443;SDS011;10381;53.730;10.010;2023-12-20T00:41:48;14.37;;;6.40;;
20443;SDS011;10381;53.730;10.010;2023-12-20T00:45:48;15.52;;;6.72;;
20443;SDS011;10381;53.730;10.010;2023-12-20T00:49:48;11.90;;;6.33;;
20443;SDS011;10381;53.730;10.010;2023-12-20T00:53:49;39.80;;;7.27;;
20443;SDS011;10381;53.730;10.010;2023-12-20T00:57:50;25.70;;;6.63;;
20443;SDS011;10381;53.730;10.010;2023-12-20T01:01:50;12.87;;;6.20;;
20443;SDS011;10381;53.730;10.010;2023-12-20T01:05:51;18.27;;;5.88;;
20443;SDS011;10381;53.730;10.010;2023-12-20T01:09:51;10.93;;;6.72;;
20443;SDS011;10381;53.730;10.010;2023-12-20T01:13:53;26.90;;;7.28;;
20443;SDS011;10381;53.730;10.010;2023-12-20T01:17:53;22.20;;;7.80;;
20443;SDS011;10381;53.730;10.010;2023-12-20T01:21:54;16.10;;;5.28;;
20443;SDS011;10381;53.730;10.010;2023-12-20T01:25:54;16.90;;;6.63;;
20443;SDS011;10381;53.730;10.010;2023-12-20T01:29:55;14.98;;;5.45;;
20443;SDS011;10381;53.730;10.010;2023-12-20T01:33:55;31.17;;;7.00;;
20443;SDS011;10381;53.730;10.010;2023-12-20T01:37:55;11.77;;;6.38;;
20443;SDS011;10381;53.730;10.010;2023-12-20T01:41:56;16.42;;;6.18;;
20443;SDS011;10381;53.730;10.010;2023-12-20T01:45:57;24.53;;;6.83;;
20443;SDS011;10381;53.730;10.010;2023-12-20T01:49:58;25.10;;;6.50;;
20443;SDS011;10381;53.730;10.010;2023-12-20T01:53:59;13.65;;;6.28;;
20443;SDS011;10381;53.730;10.010;2023-12-20T01:58:00;7.82;;;4.90;;
20443;SDS011;10381;53.730;10.010;2023-12-20T02:02:01;38.58;;;6.30;;
20443;SDS011;10381;53.730;10.010;2023-12-20T02:06:03;12.70;;;5.53;;
20443;SDS011;10381;53.730;10.010;2023-12-20T02:10:05;50.47;;;6.72;;
20443;SDS011;10381;53.730;10.010;2023-12-20T02:14:05;7.53;;;4.72;;
20443;SDS011;10381;53.730;10.010;2023-12-20T02:18:06;5.70;;;4.73;;
20443;SDS011;10381;53.730;10.010;2023-12-20T02:22:09;34.38;;;7.57;;
20443;SDS011;10381;53.730;10.010;2023-12-20T02:26:10;17.88;;;5.63;;
20443;SDS011;10381;53.730;10.010;2023-12-20T02:30:11;12.50;;;5.80;;
20443;SDS011;10381;53.730;10.010;2023-12-20T02:34:11;19.77;;;6.22;;
20443;SDS011;10381;53.730;10.010;2023-12-20T02:38:11;20.80;;;7.63;;
20443;SDS011;10381;53.730;10.010;2023-12-20T02:42:12;16.67;;;6.20;;
20443;SDS011;10381;53.730;10.010;2023-12-20T02:46:13;11.63;;;5.72;;
20443;SDS011;10381;53.730;10.010;2023-12-20T02:50:15;11.25;;;5.93;;
20443;SDS011;10381;53.730;10.010;2023-12-20T02:54:15;18.67;;;5.97;;
20443;SDS011;10381;53.730;10.010;2023-12-20T02:58:16;23.90;;;6.03;;
20443;SDS011;10381;53.730;10.010;2023-12-20T03:02:17;14.48;;;5.82;;
20443;SDS011;10381;53.730;10.010;2023-12-20T03:06:18;25.67;;;5.63;;
20443;SDS011;10381;53.730;10.010;2023-12-20T03:10:18;28.25;;;5.93;;
20443;SDS011;10381;53.730;10.010;2023-12-20T03:14:19;16.57;;;4.13;;
20443;SDS011;10381;53.730;10.010;2023-12-20T03:18:19;16.55;;;5.20;;
20443;SDS011;10381;53.730;10.010;2023-12-20T03:22:19;7.80;;;5.37;;
20443;SDS011;10381;53.730;10.010;2023-12-20T03:26:19;13.00;;;3.97;;
20443;SDS011;10381;53.730;10.010;2023-12-20T03:30:20;14.45;;;4.65;;
20443;SDS011;10381;53.730;10.010;2023-12-20T03:34:20;5.57;;;3.80;;
20443;SDS011;10381;53.730;10.010;2023-12-20T03:38:20;26.13;;;4.40;;
20443;SDS011;10381;53.730;10.010;2023-12-20T03:42:21;22.83;;;3.78;;
20443;SDS011;10381;53.730;10.010;2023-12-20T03:46:22;7.23;;;3.33;;
20443;SDS011;10381;53.730;10.010;2023-12-20T03:50:22;9.20;;;2.90;;
20443;SDS011;10381;53.730;10.010;2023-12-20T03:54:22;5.78;;;3.08;;
20443;SDS011;10381;53.730;10.010;2023-12-20T03:58:23;19.67;;;3.57;;
20443;SDS011;10381;53.730;10.010;2023-12-20T04:02:23;20.43;;;3.13;;
20443;SDS011;10381;53.730;10.010;2023-12-20T04:06:23;11.07;;;3.83;;
20443;SDS011;10381;53.730;10.010;2023-12-20T04:10:23;8.60;;;3.27;;
20443;SDS011;10381;53.730;10.010;2023-12-20T04:14:24;3.97;;;2.80;;
20443;SDS011;10381;53.730;10.010;2023-12-20T04:18:24;25.10;;;4.40;;
20443;SDS011;10381;53.730;10.010;2023-12-20T04:22:25;14.05;;;3.78;;
20443;SDS011;10381;53.730;10.010;2023-12-20T04:26:25;20.20;;;3.55;;
20443;SDS011;10381;53.730;10.010;2023-12-20T04:30:25;17.60;;;3.23;;
20443;SDS011;10381;53.730;10.010;2023-12-20T04:34:26;6.63;;;2.70;;
20443;SDS011;10381;53.730;10.010;2023-12-20T04:38:26;11.10;;;3.28;;
20443;SDS011;10381;53.730;10.010;2023-12-20T04:42:26;12.40;;;3.23;;
20443;SDS011;10381;53.730;10.010;2023-12-20T04:46:27;8.27;;;3.27;;
20443;SDS011;10381;53.730;10.010;2023-12-20T04:50:27;6.07;;;2.90;;
20443;SDS011;10381;53.730;10.010;2023-12-20T04:54:27;5.50;;;2.63;;
20443;SDS011;10381;53.730;10.010;2023-12-20T04:58:27;9.57;;;3.30;;
20443;SDS011;10381;53.730;10.010;2023-12-20T05:02:28;6.47;;;2.90;;
20443;SDS011;10381;53.730;10.010;2023-12-20T05:06:28;5.63;;;3.43;;
20443;SDS011;10381;53.730;10.010;2023-12-20T05:10:28;6.45;;;2.90;;
20443;SDS011;10381;53.730;10.010;2023-12-20T05:14:28;16.42;;;3.90;;
20443;SDS011;10381;53.730;10.010;2023-12-20T05:18:29;17.87;;;4.00;;
20443;SDS011;10381;53.730;10.010;2023-12-20T05:22:29;4.95;;;3.08;;
20443;SDS011;10381;53.730;10.010;2023-12-20T05:26:29;7.45;;;3.25;;
20443;SDS011;10381;53.730;10.010;2023-12-20T05:30:30;10.30;;;3.08;;
20443;SDS011;10381;53.730;10.010;2023-12-20T05:34:30;9.00;;;3.30;;
20443;SDS011;10381;53.730;10.010;2023-12-20T05:38:31;7.43;;;3.17;;
20443;SDS011;10381;53.730;10.010;2023-12-20T05:42:31;9.27;;;3.22;;
20443;SDS011;10381;53.730;10.010;2023-12-20T05:46:31;8.67;;;2.40;;
20443;SDS011;10381;53.730;10.010;2023-12-20T05:50:32;19.33;;;3.80;;
20443;SDS011;10381;53.730;10.010;2023-12-20T05:54:32;14.20;;;4.97;;
20443;SDS011;10381;53.730;10.010;2023-12-20T05:58:33;9.90;;;5.72;;
20443;SDS011;10381;53.730;10.010;2023-12-20T06:02:33;17.00;;;5.65;;
20443;SDS011;10381;53.730;10.010;2023-12-20T06:06:33;10.10;;;6.95;;
20443;SDS011;10381;53.730;10.010;2023-12-20T06:10:34;12.10;;;9.40;;
20443;SDS011;10381;53.730;10.010;2023-12-20T06:14:34;13.90;;;11.67;;
20443;SDS011;10381;53.730;10.010;2023-12-20T06:18:34;27.38;;;15.30;;
20443;SDS011;10381;53.730;10.010;2023-12-20T06:22:36;18.92;;;16.90;;
20443;SDS011;10381;53.730;10.010;2023-12-20T06:26:38;21.85;;;19.17;;
20443;SDS011;10381;53.730;10.010;2023-12-20T06:30:38;31.85;;;18.80;;
20443;SDS011;10381;53.730;10.010;2023-12-20T06:34:38;31.17;;;17.83;;
20443;SDS011;10381;53.730;10.010;2023-12-20T06:38:39;19.08;;;17.13;;
20443;SDS011;10381;53.730;10.010;2023-12-20T06:42:39;45.75;;;20.08;;
20443;SDS011;10381;53.730;10.010;2023-12-20T06:46:39;43.20;;;19.57;;
20443;SDS011;10381;53.730;10.010;2023-12-20T06:50:40;26.33;;;18.20;;
20443;SDS011;10381;53.730;10.010;2023-12-20T06:54:40;21.48;;;17.13;;
20443;SDS011;10381;53.730;10.010;2023-12-20T06:58:40;35.80;;;21.00;;
20443;SDS011;10381;53.730;10.010;2023-12-20T07:02:41;27.90;;;21.88;;
20443;SDS011;10381;53.730;10.010;2023-12-20T07:06:41;21.57;;;19.27;;
20443;SDS011;10381;53.730;10.010;2023-12-20T07:10:41;26.83;;;19.98;;
20443;SDS011;10381;53.730;10.010;2023-12-20T07:14:41;25.13;;;18.70;;
20443;SDS011;10381;53.730;10.010;2023-12-20T07:18:42;20.63;;;18.45;;
20443;SDS011;10381;53.730;10.010;2023-12-20T07:22:42;20.37;;;17.37;;
20443;SDS011;10381;53.730;10.010;2023-12-20T07:26:42;26.40;;;17.33;;
20443;SDS011;10381;53.730;10.010;2023-12-20T07:30:43;23.65;;;19.08;;
20443;SDS011;10381;53.730;10.010;2023-12-20T07:34:43;25.52;;;19.63;;
20443;SDS011;10381;53.730;10.010;2023-12-20T07:38:43;27.15;;;17.92;;
20443;SDS011;10381;53.730;10.010;2023-12-20T07:42:44;19.95;;;17.92;;
20443;SDS011;10381;53.730;10.010;2023-12-20T07:46:44;21.52;;;18.17;;
20443;SDS011;10381;53.730;10.010;2023-12-20T07:50:45;18.85;;;16.80;;
20443;SDS011;10381;53.730;10.010;2023-12-20T07:54:45;34.90;;;17.57;;
20443;SDS011;10381;53.730;10.010;2023-12-20T07:58:46;25.02;;;15.77;;
20443;SDS011;10381;53.730;10.010;2023-12-20T08:02:48;35.85;;;15.15;;
20443;SDS011;10381;53.730;10.010;2023-12-20T08:06:48;14.03;;;11.93;;
20443;SDS011;10381;53.730;10.010;2023-12-20T08:10:48;23.73;;;11.13;;
20443;SDS011;10381;53.730;10.010;2023-12-20T08:14:48;16.13;;;9.57;;
20443;SDS011;10381;53.730;10.010;2023-12-20T08:18:50;19.33;;;8.40;;
20443;SDS011;10381;53.730;10.010;2023-12-20T08:22:50;13.07;;;6.85;;
20443;SDS011;10381;53.730;10.010;2023-12-20T08:26:50;7.63;;;5.82;;
20443;SDS011;10381;53.730;10.010;2023-12-20T08:30:51;18.20;;;6.37;;
20443;SDS011;10381;53.730;10.010;2023-12-20T08:34:53;14.48;;;5.05;;
20443;SDS011;10381;53.730;10.010;2023-12-20T08:38:53;9.73;;;4.82;;
20443;SDS011;10381;53.730;10.010;2023-12-20T08:42:55;12.07;;;5.03;;
20443;SDS011;10381;53.730;10.010;2023-12-20T08:46:55;20.17;;;5.90;;
20443;SDS011;10381;53.730;10.010;2023-12-20T08:50:57;29.58;;;6.53;;
20443;SDS011;10381;53.730;10.010;2023-12-20T08:54:57;14.23;;;4.95;;
20443;SDS011;10381;53.730;10.010;2023-12-20T08:58:57;20.63;;;4.97;;
20443;SDS011;10381;53.730;10.010;2023-12-20T09:02:58;16.03;;;7.80;;
20443;SDS011;10381;53.730;10.010;2023-12-20T09:06:59;17.88;;;15.13;;
20443;SDS011;10381;53.730;10.010;2023-12-20T09:11:00;22.45;;;17.05;;
20443;SDS011;10381;53.730;10.010;2023-12-20T09:15:01;21.30;;;19.50;;
20443;SDS011;10381;53.730;10.010;2023-12-20T09:19:03;31.88;;;21.20;;
20443;SDS011;10381;53.730;10.010;2023-12-20T09:23:03;25.67;;;23.10;;
20443;SDS011;10381;53.730;10.010;2023-12-20T09:27:03;21.57;;;19.67;;
20443;SDS011;10381;53.730;10.010;2023-12-20T09:31:05;21.45;;;19.45;;
20443;SDS011;10381;53.730;10.010;2023-12-20T09:35:06;19.90;;;18.27;;
20443;SDS011;10381;53.730;10.010;2023-12-20T09:39:08;18.80;;;17.33;;
20443;SDS011;10381;53.730;10.010;2023-12-20T09:43:10;22.40;;;18.73;;
20443;SDS011;10381;53.730;10.010;2023-12-20T09:47:13;18.55;;;17.15;;
20443;SDS011;10381;53.730;10.010;2023-12-20T09:51:16;20.17;;;18.05;;
20443;SDS011;10381;53.730;10.010;2023-12-20T09:55:17;22.47;;;20.13;;
20443;SDS011;10381;53.730;10.010;2023-12-20T09:59:19;25.35;;;23.15;;
20443;SDS011;10381;53.730;10.010;2023-12-20T10:03:21;20.20;;;18.55;;
20443;SDS011;10381;53.730;10.010;2023-12-20T10:07:24;18.85;;;17.17;;
20443;SDS011;10381;53.730;10.010;2023-12-20T10:11:24;17.58;;;15.93;;
20443;SDS011;10381;53.730;10.010;2023-12-20T10:15:25;13.15;;;12.05;;
20443;SDS011;10381;53.730;10.010;2023-12-20T10:19:25;17.10;;;14.17;;
20443;SDS011;10381;53.730;10.010;2023-12-20T10:23:25;17.20;;;14.57;;
20443;SDS011;10381;53.730;10.010;2023-12-20T10:27:26;14.45;;;13.05;;
20443;SDS011;10381;53.730;10.010;2023-12-20T10:31:27;17.90;;;16.17;;
20443;SDS011;10381;53.730;10.010;2023-12-20T10:35:28;17.17;;;14.70;;
20443;SDS011;10381;53.730;10.010;2023-12-20T10:39:28;16.10;;;14.73;;
20443;SDS011;10381;53.730;10.010;2023-12-20T10:43:28;12.88;;;11.60;;
20443;SDS011;10381;53.730;10.010;2023-12-20T10:47:30;9.80;;;8.95;;
20443;SDS011;10381;53.730;10.010;2023-12-20T10:51:32;19.45;;;9.50;;
20443;SDS011;10381;53.730;10.010;2023-12-20T10:55:34;15.25;;;10.15;;
20443;SDS011;10381;53.730;10.010;2023-12-20T10:59:36;46.63;;;29.15;;
20443;SDS011;10381;53.730;10.010;2023-12-20T11:03:37;30.92;;;28.13;;
20443;SDS011;10381;53.730;10.010;2023-12-20T11:07:43;26.20;;;24.00;;
20443;SDS011;10381;53.730;10.010;2023-12-20T11:16:07;31.20;;;26.73;;
20443;SDS011;10381;53.730;10.010;2023-12-20T11:20:08;30.17;;;27.02;;
20443;SDS011;10381;53.730;10.010;2023-12-20T11:24:11;36.13;;;28.95;;
20443;SDS011;10381;53.730;10.010;2023-12-20T11:28:11;30.77;;;27.87;;
20443;SDS011;10381;53.730;10.010;2023-12-20T11:36:21;32.53;;;26.48;;
20443;SDS011;10381;53.730;10.010;2023-12-20T11:40:25;26.50;;;24.00;;
20443;SDS011;10381;53.730;10.010;2023-12-20T11:44:26;31.38;;;25.73;;
20443;SDS011;10381;53.730;10.010;2023-12-20T11:48:30;35.42;;;27.15;;
20443;SDS011;10381;53.730;10.010;2023-12-20T11:52:31;28.90;;;24.65;;
20443;SDS011;10381;53.730;10.010;2023-12-20T11:56:31;31.57;;;26.07;;
20443;SDS011;10381;53.730;10.010;2023-12-20T12:00:32;35.17;;;27.63;;
20443;SDS011;10381;53.730;10.010;2023-12-20T12:04:32;43.28;;;26.13;;
20443;SDS011;10381;53.730;10.010;2023-12-20T12:08:32;31.20;;;22.73;;
20443;SDS011;10381;53.730;10.010;2023-12-20T12:12:33;35.85;;;23.83;;
20443;SDS011;10381;53.730;10.010;2023-12-20T12:16:33;49.45;;;20.17;;
20443;SDS011;10381;53.730;10.010;2023-12-20T12:20:34;25.77;;;18.80;;
20443;SDS011;10381;53.730;10.010;2023-12-20T12:24:34;36.83;;;20.17;;
20443;SDS011;10381;53.730;10.010;2023-12-20T12:28:35;26.63;;;19.40;;
20443;SDS011;10381;53.730;10.010;2023-12-20T12:32:36;16.98;;;15.45;;
20443;SDS011;10381;53.730;10.010;2023-12-20T12:36:39;29.25;;;18.50;;
20443;SDS011;10381;53.730;10.010;2023-12-20T12:40:39;17.63;;;15.57;;
20443;SDS011;10381;53.730;10.010;2023-12-20T12:44:41;22.25;;;14.18;;
20443;SDS011;10381;53.730;10.010;2023-12-20T12:48:43;23.85;;;13.13;;
20443;SDS011;10381;53.730;10.010;2023-12-20T12:52:45;19.00;;;10.27;;
20443;SDS011;10381;53.730;10.010;2023-12-20T12:56:45;21.67;;;11.10;;
20443;SDS011;10381;53.730;10.010;2023-12-20T13:00:47;20.58;;;11.02;;
20443;SDS011;10381;53.730;10.010;2023-12-20T13:04:47;18.38;;;11.18;;
20443;SDS011;10381;53.730;10.010;2023-12-20T13:08:48;16.70;;;9.57;;
20443;SDS011;10381;53.730;10.010;2023-12-20T13:12:48;18.75;;;10.73;;
20443;SDS011;10381;53.730;10.010;2023-12-20T13:16:49;24.43;;;10.93;;
20443;SDS011;10381;53.730;10.010;2023-12-20T13:20:50;13.85;;;9.60;;
20443;SDS011;10381;53.730;10.010;2023-12-20T13:24:51;14.82;;;9.20;;
20443;SDS011;10381;53.730;10.010;2023-12-20T13:28:51;24.55;;;9.98;;
20443;SDS011;10381;53.730;10.010;2023-12-20T13:32:51;20.27;;;11.97;;
20443;SDS011;10381;53.730;10.010;2023-12-20T13:36:52;19.97;;;9.77;;
20443;SDS011;10381;53.730;10.010;2023-12-20T13:40:52;29.10;;;11.35;;
20443;SDS011;10381;53.730;10.010;2023-12-20T13:44:53;22.90;;;12.85;;
20443;SDS011;10381;53.730;10.010;2023-12-20T13:48:53;21.17;;;12.90;;
20443;SDS011;10381;53.730;10.010;2023-12-20T13:52:54;23.95;;;11.02;;
20443;SDS011;10381;53.730;10.010;2023-12-20T13:56:54;19.97;;;13.10;;
20443;SDS011;10381;53.730;10.010;2023-12-20T14:00:54;25.67;;;11.47;;
20443;SDS011;10381;53.730;10.010;2023-12-20T14:04:55;17.60;;;10.43;;
20443;SDS011;10381;53.730;10.010;2023-12-20T14:08:55;18.63;;;11.63;;
20443;SDS011;10381;53.730;10.010;2023-12-20T14:12:55;21.45;;;13.73;;
20443;SDS011;10381;53.730;10.010;2023-12-20T14:16:56;24.13;;;13.23;;
20443;SDS011;10381;53.730;10.010;2023-12-20T14:20:57;21.53;;;12.63;;
20443;SDS011;10381;53.730;10.010;2023-12-20T14:24:58;28.45;;;14.18;;
20443;SDS011;10381;53.730;10.010;2023-12-20T14:28:58;18.97;;;11.27;;
20443;SDS011;10381;53.730;10.010;2023-12-20T14:32:58;13.37;;;9.70;;
20443;SDS011;10381;53.730;10.010;2023-12-20T14:36:58;23.38;;;11.43;;
20443;SDS011;10381;53.730;10.010;2023-12-20T14:40:59;15.80;;;10.03;;
20443;SDS011;10381;53.730;10.010;2023-12-20T14:44:59;22.75;;;10.32;;
20443;SDS011;10381;53.730;10.010;2023-12-20T14:48:59;18.48;;;10.07;;
20443;SDS011;10381;53.730;10.010;2023-12-20T14:53:02;18.60;;;10.63;;
20443;SDS011;10381;53.730;10.010;2023-12-20T14:57:03;30.38;;;27.00;;
20443;SDS011;10381;53.730;10.010;2023-12-20T15:01:03;46.00;;;28.75;;
20443;SDS011;10381;53.730;10.010;2023-12-20T15:05:03;42.55;;;35.67;;
20443;SDS011;10381;53.730;10.010;2023-12-20T15:09:04;54.08;;;48.97;;
20443;SDS011;10381;53.730;10.010;2023-12-20T15:13:05;54.75;;;44.53;;
20443;SDS011;10381;53.730;10.010;2023-12-20T15:17:06;41.78;;;37.40;;
20443;SDS011;10381;53.730;10.010;2023-12-20T15:21:06;43.25;;;39.13;;
20443;SDS011;10381;53.730;10.010;2023-12-20T15:25:06;47.80;;;38.90;;
20443;SDS011;10381;53.730;10.010;2023-12-20T15:29:08;49.35;;;38.45;;
20443;SDS011;10381;53.730;10.010;2023-12-20T15:33:11;49.85;;;38.30;;
20443;SDS011;10381;53.730;10.010;2023-12-20T15:37:11;55.72;;;39.70;;
20443;SDS011;10381;53.730;10.010;2023-12-20T15:41:19;47.63;;;36.22;;
20443;SDS011;10381;53.730;10.010;2023-12-20T15:45:19;42.65;;;35.10;;
20443;SDS011;10381;53.730;10.010;2023-12-20T15:49:20;37.03;;;33.42;;
20443;SDS011;10381;53.730;10.010;2023-12-20T15:53:21;50.05;;;30.42;;
20443;SDS011;10381;53.730;10.010;2023-12-20T15:57:21;47.15;;;30.40;;
20443;SDS011;10381;53.730;10.010;2023-12-20T16:01:21;50.37;;;31.27;;
20443;SDS011;10381;53.730;10.010;2023-12-20T16:05:22;75.37;;;36.40;;
20443;SDS011;10381;53.730;10.010;2023-12-20T16:09:22;27.90;;;22.20;;
20443;SDS011;10381;53.730;10.010;2023-12-20T16:13:22;48.90;;;27.07;;
20443;SDS011;10381;53.730;10.010;2023-12-20T16:17:22;44.83;;;22.83;;
20443;SDS011;10381;53.730;10.010;2023-12-20T16:21:23;42.93;;;25.87;;
20443;SDS011;10381;53.730;10.010;2023-12-20T16:25:24;43.83;;;27.77;;
20443;SDS011;10381;53.730;10.010;2023-12-20T16:29:24;36.50;;;25.85;;
20443;SDS011;10381;53.730;10.010;2023-12-20T16:33:24;33.08;;;19.92;;
20443;SDS011;10381;53.730;10.010;2023-12-20T16:37:25;26.27;;;17.52;;
20443;SDS011;10381;53.730;10.010;2023-12-20T16:41:25;28.13;;;17.73;;
20443;SDS011;10381;53.730;10.010;2023-12-20T16:45:25;17.53;;;14.40;;
20443;SDS011;10381;53.730;10.010;2023-12-20T16:49:26;36.07;;;15.93;;
20443;SDS011;10381;53.730;10.010;2023-12-20T16:53:26;22.65;;;12.57;;
20443;SDS011;10381;53.730;10.010;2023-12-20T16:57:27;18.00;;;12.85;;
20443;SDS011;10381;53.730;10.010;2023-12-20T17:01:29;16.20;;;12.55;;
20443;SDS011;10381;53.730;10.010;2023-12-20T17:05:29;25.00;;;12.48;;
20443;SDS011;10381;53.730;10.010;2023-12-20T17:09:30;20.27;;;11.75;;
20443;SDS011;10381;53.730;10.010;2023-12-20T17:13:31;24.02;;;9.95;;
20443;SDS011;10381;53.730;10.010;2023-12-20T17:17:31;11.30;;;8.40;;
20443;SDS011;10381;53.730;10.010;2023-12-20T17:21:31;8.93;;;7.77;;
20443;SDS011;10381;53.730;10.010;2023-12-20T17:25:32;14.50;;;7.77;;
20443;SDS011;10381;53.730;10.010;2023-12-20T17:29:34;8.15;;;6.70;;
20443;SDS011;10381;53.730;10.010;2023-12-20T17:33:34;14.93;;;8.43;;
20443;SDS011;10381;53.730;10.010;2023-12-20T17:37:35;11.13;;;8.00;;
20443;SDS011;10381;53.730;10.010;2023-12-20T17:41:35;18.33;;;7.93;;
20443;SDS011;10381;53.730;10.010;2023-12-20T17:45:37;12.60;;;7.40;;
20443;SDS011;10381;53.730;10.010;2023-12-20T17:49:38;21.03;;;7.93;;
20443;SDS011;10381;53.730;10.010;2023-12-20T17:53:38;16.23;;;6.60;;
20443;SDS011;10381;53.730;10.010;2023-12-20T17:57:38;16.23;;;6.33;;
20443;SDS011;10381;53.730;10.010;2023-12-20T18:01:40;12.10;;;6.93;;
20443;SDS011;10381;53.730;10.010;2023-12-20T18:05:40;21.58;;;6.68;;
20443;SDS011;10381;53.730;10.010;2023-12-20T18:09:40;32.58;;;15.75;;
20443;SDS011;10381;53.730;10.010;2023-12-20T18:13:40;12.80;;;7.47;;
20443;SDS011;10381;53.730;10.010;2023-12-20T18:17:41;21.45;;;7.00;;
20443;SDS011;10381;53.730;10.010;2023-12-20T18:21:42;12.02;;;6.05;;
20443;SDS011;10381;53.730;10.010;2023-12-20T18:25:42;17.98;;;5.93;;
20443;SDS011;10381;53.730;10.010;2023-12-20T18:29:42;12.07;;;5.60;;
20443;SDS011;10381;53.730;10.010;2023-12-20T18:33:43;9.82;;;5.25;;
20443;SDS011;10381;53.730;10.010;2023-12-20T18:37:43;18.77;;;4.87;;
20443;SDS011;10381;53.730;10.010;2023-12-20T18:41:43;8.55;;;4.72;;
20443;SDS011;10381;53.730;10.010;2023-12-20T18:45:48;16.75;;;4.82;;
20443;SDS011;10381;53.730;10.010;2023-12-20T18:49:48;18.13;;;5.53;;
20443;SDS011;10381;53.730;10.010;2023-12-20T18:53:48;12.23;;;4.93;;
20443;SDS011;10381;53.730;10.010;2023-12-20T18:57:48;22.70;;;5.43;;
20443;SDS011;10381;53.730;10.010;2023-12-20T19:01:49;5.20;;;3.77;;
20443;SDS011;10381;53.730;10.010;2023-12-20T19:05:49;16.55;;;4.50;;
20443;SDS011;10381;53.730;10.010;2023-12-20T19:09:50;6.57;;;5.75;;
20443;SDS011;10381;53.730;10.010;2023-12-20T19:13:50;18.13;;;8.47;;
20443;SDS011;10381;53.730;10.010;2023-12-20T19:17:50;10.70;;;8.85;;
20443;SDS011;10381;53.730;10.010;2023-12-20T19:21:51;19.45;;;10.85;;
20443;SDS011;10381;53.730;10.010;2023-12-20T19:25:51;16.57;;;13.53;;
20443;SDS011;10381;53.730;10.010;2023-12-20T19:29:51;25.47;;;14.93;;
20443;SDS011;10381;53.730;10.010;2023-12-20T19:33:57;33.35;;;16.67;;
20443;SDS011;10381;53.730;10.010;2023-12-20T19:37:58;20.85;;;15.70;;
20443;SDS011;10381;53.730;10.010;2023-12-20T19:41:58;19.57;;;17.50;;
20443;SDS011;10381;53.730;10.010;2023-12-20T19:45:58;19.87;;;18.17;;
20443;SDS011;10381;53.730;10.010;2023-12-20T19:49:59;22.77;;;20.43;;
20443;SDS011;10381;53.730;10.010;2023-12-20T19:53:59;28.43;;;22.53;;
20443;SDS011;10381;53.730;10.010;2023-12-20T19:57:59;23.50;;;21.40;;
20443;SDS011;10381;53.730;10.010;2023-12-20T20:02:00;25.73;;;23.23;;
20443;SDS011;10381;53.730;10.010;2023-12-20T20:06:01;25.77;;;23.33;;
20443;SDS011;10381;53.730;10.010;2023-12-20T20:10:01;24.88;;;22.27;;
20443;SDS011;10381;53.730;10.010;2023-12-20T20:14:02;24.73;;;22.45;;
20443;SDS011;10381;53.730;10.010;2023-12-20T20:18:02;28.45;;;22.77;;
20443;SDS011;10381;53.730;10.010;2023-12-20T20:22:03;25.20;;;22.55;;
20443;SDS011;10381;53.730;10.010;2023-12-20T20:26:04;23.23;;;21.20;;
20443;SDS011;10381;53.730;10.010;2023-12-20T20:30:04;24.40;;;20.60;;
20443;SDS011;10381;53.730;10.010;2023-12-20T20:34:05;19.77;;;18.05;;
20443;SDS011;10381;53.730;10.010;2023-12-20T20:38:05;25.10;;;19.33;;
20443;SDS011;10381;53.730;10.010;2023-12-20T20:42:05;22.10;;;16.77;;
20443;SDS011;10381;53.730;10.010;2023-12-20T20:46:06;21.92;;;13.88;;
20443;SDS011;10381;53.730;10.010;2023-12-20T20:50:07;16.50;;;14.18;;
20443;SDS011;10381;53.730;10.010;2023-12-20T20:54:09;15.18;;;13.70;;
20443;SDS011;10381;53.730;10.010;2023-12-20T20:58:10;15.85;;;12.88;;
20443;SDS011;10381;53.730;10.010;2023-12-20T21:02:11;16.00;;;11.68;;
20443;SDS011;10381;53.730;10.010;2023-12-20T21:06:11;17.40;;;10.43;;
20443;SDS011;10381;53.730;10.010;2023-12-20T21:10:11;12.90;;;10.75;;
20443;SDS011;10381;53.730;10.010;2023-12-20T21:14:12;19.00;;;10.48;;
20443;SDS011;10381;53.730;10.010;2023-12-20T21:18:13;23.40;;;10.30;;
20443;SDS011;10381;53.730;10.010;2023-12-20T21:22:13;23.63;;;12.95;;
20443;SDS011;10381;53.730;10.010;2023-12-20T21:26:14;12.80;;;11.33;;
20443;SDS011;10381;53.730;10.010;2023-12-20T21:30:14;12.20;;;10.90;;
20443;SDS011;10381;53.730;10.010;2023-12-20T21:34:14;13.33;;;9.97;;
20443;SDS011;10381;53.730;10.010;2023-12-20T21:38:15;18.20;;;10.65;;
20443;SDS011;10381;53.730;10.010;2023-12-20T21:42:16;22.85;;;10.20;;
20443;SDS011;10381;53.730;10.010;2023-12-20T21:46:16;12.60;;;9.70;;
20443;SDS011;10381;53.730;10.010;2023-12-20T21:50:17;19.05;;;10.38;;
20443;SDS011;10381;53.730;10.010;2023-12-20T21:54:17;20.17;;;9.73;;
20443;SDS011;10381;53.730;10.010;2023-12-20T21:58:18;15.33;;;8.77;;
20443;SDS011;10381;53.730;10.010;2023-12-20T22:02:18;16.93;;;8.83;;
20443;SDS011;10381;53.730;10.010;2023-12-20T22:06:18;13.90;;;8.27;;
20443;SDS011;10381;53.730;10.010;2023-12-20T22:10:18;16.50;;;8.10;;
20443;SDS011;10381;53.730;10.010;2023-12-20T22:14:19;11.90;;;8.38;;
20443;SDS011;10381;53.730;10.010;2023-12-20T22:18:19;12.02;;;7.18;;
20443;SDS011;10381;53.730;10.010;2023-12-20T22:22:19;9.83;;;7.90;;
20443;SDS011;10381;53.730;10.010;2023-12-20T22:26:20;7.93;;;7.13;;
20443;SDS011;10381;53.730;10.010;2023-12-20T22:30:20;10.70;;;6.47;;
20443;SDS011;10381;53.730;10.010;2023-12-20T22:34:21;19.40;;;8.30;;
20443;SDS011;10381;53.730;10.010;2023-12-20T22:38:21;13.18;;;7.35;;
20443;SDS011;10381;53.730;10.010;2023-12-20T22:42:22;11.63;;;6.73;;
20443;SDS011;10381;53.730;10.010;2023-12-20T22:46:22;8.33;;;6.90;;
20443;SDS011;10381;53.730;10.010;2023-12-20T22:50:22;9.30;;;5.97;;
20443;SDS011;10381;53.730;10.010;2023-12-20T22:54:23;8.93;;;6.45;;
20443;SDS011;10381;53.730;10.010;2023-12-20T22:58:24;7.80;;;5.73;;
20443;SDS011;10381;53.730;10.010;2023-12-20T23:02:25;10.05;;;7.68;;
20443;SDS011;10381;53.730;10.010;2023-12-20T23:06:26;13.03;;;8.30;;
20443;SDS011;10381;53.730;10.010;2023-12-20T23:10:26;17.45;;;9.55;;
20443;SDS011;10381;53.730;10.010;2023-12-20T23:14:29;10.75;;;7.75;;
20443;SDS011;10381;53.730;10.010;2023-12-20T23:18:30;9.00;;;6.72;;
20443;SDS011;10381;53.730;10.010;2023-12-20T23:22:30;8.95;;;6.50;;
20443;SDS011;10381;53.730;10.010;2023-12-20T23:26:30;10.50;;;6.87;;